createdAt,value
2018-12-10T00:01:15.008Z,99197.53
2018-12-10T00:03:42.543Z,99210.95
2018-12-10T00:06:10.038Z,99209.87
2018-12-10T00:08:37.476Z,99210.16
2018-12-10T00:11:05.025Z,99216.13
2018-12-10T00:13:32.438Z,99222.38
2018-12-10T00:15:59.935Z,99233.92
2018-12-10T00:18:27.339Z,99233.37
2018-12-10T00:20:54.754Z,99244.94
2018-12-10T00:23:22.222Z,99241.38
2018-12-10T00:25:49.646Z,99243.53
2018-12-10T00:28:17.243Z,99252.70
2018-12-10T00:30:44.658Z,99254.25
2018-12-10T00:33:12.127Z,99258.56
2018-12-10T00:35:39.542Z,99260.66
2018-12-10T00:38:06.963Z,99261.59
2018-12-10T00:40:34.404Z,99264.98
2018-12-10T00:43:01.828Z,99265.59
2018-12-10T00:45:29.323Z,99260.95
2018-12-10T00:47:56.732Z,99260.81
2018-12-10T00:50:24.154Z,99262.97
2018-12-10T00:52:51.591Z,99274.52
2018-12-10T00:55:19.020Z,99270.08
2018-12-10T00:57:46.507Z,99275.30
2018-12-10T01:00:13.923Z,99279.06
2018-12-10T01:02:41.352Z,99276.05
2018-12-10T01:05:08.779Z,99302.97
2018-12-10T01:07:36.748Z,99300.50
2018-12-10T01:10:04.181Z,99303.66
2018-12-10T01:12:31.628Z,99303.60
2018-12-10T01:14:59.047Z,99306.55
2018-12-10T01:17:26.459Z,99307.35
2018-12-10T01:19:54.571Z,99311.36
2018-12-10T01:22:22.003Z,99317.61
2018-12-10T01:24:49.512Z,99326.69
2018-12-10T01:27:16.928Z,99332.66
2018-12-10T01:29:44.360Z,99333.14
2018-12-10T01:32:11.845Z,99330.34
2018-12-10T01:34:39.266Z,99338.34
2018-12-10T01:37:06.701Z,99345.16
2018-12-10T01:39:34.120Z,99339.55
2018-12-10T01:42:01.540Z,99341.50
2018-12-10T01:44:28.950Z,99342.62
2018-12-10T01:46:56.474Z,99348.95
2018-12-10T01:49:23.934Z,99336.13
2018-12-10T01:51:51.369Z,99347.02
2018-12-10T01:54:19.248Z,99348.23
2018-12-10T01:56:46.659Z,99346.80
2018-12-10T01:59:14.075Z,99350.18
2018-12-10T02:01:41.554Z,99356.59
2018-12-10T02:04:08.975Z,99366.98
2018-12-10T02:06:36.447Z,99357.62
2018-12-10T02:09:04.145Z,99348.66
2018-12-10T02:11:31.553Z,99373.02
2018-12-10T02:13:58.972Z,99367.27
2018-12-10T02:16:26.407Z,99375.49
2018-12-10T02:18:53.820Z,99374.68
2018-12-10T02:21:21.291Z,99375.27
2018-12-10T02:23:48.723Z,99375.27
2018-12-10T02:26:16.155Z,99380.97
2018-12-10T02:29:15.351Z,99394.83
2018-12-10T02:31:42.787Z,99390.78
2018-12-10T02:34:10.205Z,99390.07
2018-12-10T02:36:37.625Z,99401.86
2018-12-10T02:39:05.251Z,99409.45
2018-12-10T02:41:32.678Z,99403.05
2018-12-10T02:44:00.860Z,99399.30
2018-12-10T02:46:28.335Z,99409.45
2018-12-10T02:48:55.798Z,99413.30
2018-12-10T02:51:23.276Z,99410.20
2018-12-10T02:53:50.687Z,99412.03
2018-12-10T02:56:18.101Z,99415.88
2018-12-10T02:58:45.513Z,99422.76
2018-12-10T03:01:12.979Z,99430.28
2018-12-10T03:03:40.464Z,99424.55
2018-12-10T03:06:07.879Z,99430.62
2018-12-10T03:08:35.311Z,99436.34
2018-12-10T03:11:02.806Z,99434.12
2018-12-10T03:13:30.227Z,99434.99
2018-12-10T03:15:57.649Z,99439.14
2018-12-10T03:18:25.069Z,99437.38
2018-12-10T03:20:53.083Z,99442.05
2018-12-10T03:23:20.660Z,99432.26
2018-12-10T03:25:48.088Z,99450.60
2018-12-10T03:28:15.516Z,99461.75
2018-12-10T03:30:43.093Z,99474.56
2018-12-10T03:33:10.642Z,99485.84
2018-12-10T03:35:38.121Z,99487.12
2018-12-10T03:38:05.561Z,99489.80
2018-12-10T03:40:32.983Z,99496.20
2018-12-10T03:43:00.407Z,99502.94
2018-12-10T03:45:27.858Z,99507.94
2018-12-10T03:47:55.352Z,99514.23
2018-12-10T03:50:22.795Z,99516.20
2018-12-10T03:52:50.297Z,99524.80
2018-12-10T03:55:17.712Z,99529.77
2018-12-10T03:57:45.144Z,99530.98
2018-12-10T04:00:12.565Z,99534.70
2018-12-10T04:02:40.024Z,99532.47
2018-12-10T04:05:07.676Z,99529.79
2018-12-10T04:07:35.255Z,99531.76
2018-12-10T04:10:02.731Z,99537.45
2018-12-10T04:12:30.371Z,99540.84
2018-12-10T04:14:57.779Z,99534.80
2018-12-10T04:17:25.293Z,99536.59
2018-12-10T04:19:52.712Z,99554.52
2018-12-10T04:22:20.145Z,99546.32
2018-12-10T04:24:47.655Z,99555.71
2018-12-10T04:27:15.066Z,99561.12
2018-12-10T04:29:42.577Z,99569.52
2018-12-10T04:32:09.991Z,99564.39
2018-12-10T04:34:38.244Z,99564.39
2018-12-10T04:37:05.671Z,99585.45
2018-12-10T04:39:33.123Z,99589.17
2018-12-10T04:42:00.577Z,99595.49
2018-12-10T04:44:28.059Z,99597.53
2018-12-10T04:46:55.484Z,99575.41
2018-12-10T04:49:22.912Z,99601.49
2018-12-10T04:51:50.347Z,99607.54
2018-12-10T04:54:17.751Z,99605.33
2018-12-10T04:56:45.167Z,99609.09
2018-12-10T04:59:12.587Z,99613.02
2018-12-10T05:01:40.035Z,99631.87
2018-12-10T05:04:07.462Z,99620.90
2018-12-10T05:06:34.873Z,99621.50
2018-12-10T05:09:02.637Z,99627.82
2018-12-10T05:11:30.049Z,99634.18
2018-12-10T05:13:57.463Z,99649.11
2018-12-10T05:16:24.898Z,99638.06
2018-12-10T05:18:52.323Z,99650.75
2018-12-10T05:21:19.756Z,99658.63
2018-12-10T05:23:47.173Z,99656.10
2018-12-10T05:26:14.592Z,99654.34
2018-12-10T05:28:42.074Z,99665.86
2018-12-10T05:31:09.487Z,99668.70
2018-12-10T05:33:36.930Z,99680.14
2018-12-10T05:36:04.343Z,99686.94
2018-12-10T05:38:31.760Z,99681.69
2018-12-10T05:40:59.291Z,99696.09
2018-12-10T05:43:26.816Z,99697.59
2018-12-10T05:45:55.586Z,99699.80
2018-12-10T05:48:23.279Z,99699.48
2018-12-10T05:50:50.703Z,99702.45
2018-12-10T05:53:18.152Z,99708.84
2018-12-10T05:55:45.569Z,99706.28
2018-12-10T05:58:12.988Z,99701.56
2018-12-10T06:00:40.448Z,99707.82
2018-12-10T06:03:07.866Z,99707.30
2018-12-10T06:05:35.297Z,99701.58
2018-12-10T06:08:02.720Z,99697.74
2018-12-10T06:10:30.691Z,99704.75
2018-12-10T06:12:58.134Z,99725.95
2018-12-10T06:15:26.053Z,99716.99
2018-12-10T06:17:53.680Z,99726.75
2018-12-10T06:20:21.099Z,99734.84
2018-12-10T06:22:48.512Z,99739.75
2018-12-10T06:25:15.955Z,99731.91
2018-12-10T06:27:43.395Z,99745.91
2018-12-10T06:30:10.916Z,99756.89
2018-12-10T06:32:38.463Z,99762.05
2018-12-10T06:35:05.889Z,99766.47
2018-12-10T06:37:37.544Z,99765.45
2018-12-10T06:40:02.809Z,99770.13
2018-12-10T06:42:30.290Z,99774.45
2018-12-10T06:44:57.793Z,99768.93
2018-12-10T06:47:25.276Z,99774.75
2018-12-10T06:49:52.792Z,99782.12
2018-12-10T06:52:20.247Z,99774.45
2018-12-10T06:54:47.691Z,99776.86
2018-12-10T06:57:15.137Z,99784.84
2018-12-10T06:59:42.613Z,99785.47
2018-12-10T07:02:10.079Z,99780.80
2018-12-10T07:04:37.800Z,99797.91
2018-12-10T07:07:05.287Z,99787.68
2018-12-10T07:09:32.773Z,99796.38
2018-12-10T07:12:00.232Z,99797.52
2018-12-10T07:14:27.672Z,99805.30
2018-12-10T07:16:55.285Z,99813.53
2018-12-10T07:19:22.769Z,99820.07
2018-12-10T07:21:50.264Z,99816.13
2018-12-10T07:24:17.803Z,99832.02
2018-12-10T07:26:45.269Z,99829.12
2018-12-10T07:29:12.749Z,99837.00
2018-12-10T07:31:40.194Z,99835.64
2018-12-10T07:34:07.630Z,99841.63
2018-12-10T07:36:35.087Z,99843.28
2018-12-10T07:39:02.631Z,99843.09
2018-12-10T07:41:30.146Z,99839.46
2018-12-10T07:43:57.547Z,99841.66
2018-12-10T07:46:24.993Z,99843.85
2018-12-10T07:48:52.448Z,99845.21
2018-12-10T07:51:20.132Z,99840.64
2018-12-10T07:53:47.557Z,99850.84
2018-12-10T07:56:15.190Z,99852.23
2018-12-10T07:58:42.701Z,99849.16
2018-12-10T08:01:10.175Z,99854.23
2018-12-10T08:03:37.615Z,99860.94
2018-12-10T08:06:05.116Z,99865.31
2018-12-10T08:08:32.551Z,99873.73
2018-12-10T08:11:00.129Z,99875.47
2018-12-10T08:13:27.625Z,99874.32
2018-12-10T08:15:55.165Z,99891.72
2018-12-10T08:18:22.617Z,99878.91
2018-12-10T08:20:50.069Z,99888.54
2018-12-10T08:23:17.555Z,99882.70
2018-12-10T08:25:44.994Z,99882.62
2018-12-10T08:28:12.531Z,99888.36
2018-12-10T08:30:39.996Z,99889.06
2018-12-10T08:33:07.520Z,99893.44
2018-12-10T08:35:40.852Z,99900.59
2018-12-10T08:38:04.436Z,99907.66
2018-12-10T08:40:31.857Z,99910.52
2018-12-10T08:42:59.360Z,99913.27
2018-12-10T08:45:26.958Z,99915.65
2018-12-10T08:47:54.625Z,99910.97
2018-12-10T08:50:22.052Z,99903.16
2018-12-10T08:52:49.514Z,99921.21
2018-12-10T08:55:16.999Z,99903.00
2018-12-10T08:57:44.484Z,99921.01
2018-12-10T09:00:11.908Z,99913.64
2018-12-10T09:02:39.375Z,99922.52
2018-12-10T09:05:06.823Z,99919.78
2018-12-10T09:07:34.270Z,99913.47
2018-12-10T09:10:01.740Z,99914.75
2018-12-10T09:12:29.249Z,99926.53
2018-12-10T09:14:57.737Z,99921.72
2018-12-10T09:17:25.236Z,99926.88
2018-12-10T09:19:52.720Z,99926.08
2018-12-10T09:22:20.220Z,99922.60
2018-12-10T09:24:47.641Z,99920.41
2018-12-10T09:27:15.176Z,99924.87
2018-12-10T09:29:42.725Z,99916.22
2018-12-10T09:32:12.383Z,99915.51
2018-12-10T09:34:39.767Z,99925.98
2018-12-10T09:37:07.256Z,99929.73
2018-12-10T09:39:34.776Z,99930.48
2018-12-10T09:42:02.333Z,99935.22
2018-12-10T09:44:29.756Z,99940.61
2018-12-10T09:46:59.071Z,99939.27
2018-12-10T09:49:26.720Z,99934.59
2018-12-10T09:51:54.206Z,99931.91
2018-12-10T09:54:21.761Z,99931.08
2018-12-10T09:56:49.192Z,99943.17
2018-12-10T09:59:16.690Z,99936.09
2018-12-10T10:01:44.147Z,99942.89
2018-12-10T10:04:11.585Z,99941.50
2018-12-10T10:06:39.012Z,99947.48
2018-12-10T10:09:06.483Z,99949.92
2018-12-10T10:11:33.953Z,99956.15
2018-12-10T10:14:01.411Z,99947.48
2018-12-10T10:16:28.881Z,99947.66
2018-12-10T10:18:56.320Z,99951.91
2018-12-10T10:21:23.796Z,99952.30
2018-12-10T10:23:51.253Z,99952.79
2018-12-10T10:26:18.780Z,99942.80
2018-12-10T10:28:46.195Z,99952.26
2018-12-10T10:31:13.715Z,99951.89
2018-12-10T10:33:41.192Z,99938.98
2018-12-10T10:36:08.675Z,99937.67
2018-12-10T10:38:36.103Z,99939.14
2018-12-10T10:41:03.566Z,99946.64
2018-12-10T10:43:31.002Z,99930.78
2018-12-10T10:45:58.467Z,99926.41
2018-12-10T10:48:26.075Z,99928.30
2018-12-10T10:50:53.515Z,99927.47
2018-12-10T10:53:21.089Z,99924.37
2018-12-10T10:55:48.553Z,99926.06
2018-12-10T10:58:16.006Z,99918.37
2018-12-10T11:00:48.964Z,99913.72
2018-12-10T11:03:21.716Z,99920.81
2018-12-10T11:05:49.176Z,99913.11
2018-12-10T11:08:16.609Z,99908.58
2018-12-10T11:10:44.077Z,99916.80
2018-12-10T11:13:11.536Z,99916.87
2018-12-10T11:15:39.012Z,99914.77
2018-12-10T11:18:06.468Z,99920.45
2018-12-10T11:20:33.903Z,99913.91
2018-12-10T11:23:01.373Z,99915.37
2018-12-10T11:25:28.827Z,99916.23
2018-12-10T11:27:56.289Z,99918.59
2018-12-10T11:30:23.759Z,99926.77
2018-12-10T11:32:51.172Z,99927.50
2018-12-10T11:35:18.643Z,99923.91
2018-12-10T11:37:46.107Z,99923.38
2018-12-10T11:40:13.566Z,99931.45
2018-12-10T11:42:41.025Z,99953.08
2018-12-10T11:45:08.599Z,99957.96
2018-12-10T11:47:36.237Z,99956.16
2018-12-10T11:50:03.684Z,99958.72
2018-12-10T11:52:31.220Z,99950.59
2018-12-10T11:54:58.994Z,99944.64
2018-12-10T11:57:26.483Z,99935.65
2018-12-10T11:59:53.959Z,99939.37
2018-12-10T12:02:29.623Z,99927.29
2018-12-10T12:04:50.833Z,99946.38
2018-12-10T12:07:18.271Z,99942.32
2018-12-10T12:09:45.757Z,99946.52
2018-12-10T12:12:13.284Z,99953.49
2018-12-10T12:14:40.916Z,99934.00
2018-12-10T12:17:08.414Z,99933.55
2018-12-10T12:19:35.833Z,99931.30
2018-12-10T12:22:05.157Z,99917.28
2018-12-10T12:24:32.808Z,99925.58
2018-12-10T12:27:00.276Z,99929.38
2018-12-10T12:29:27.733Z,99930.09
2018-12-10T12:31:55.156Z,99928.56
2018-12-10T12:34:22.603Z,99916.32
2018-12-10T12:36:50.046Z,99919.16
2018-12-10T12:39:17.518Z,99910.86
2018-12-10T12:41:44.953Z,99904.08
2018-12-10T12:44:12.413Z,99917.63
2018-12-10T12:46:40.010Z,99914.17
2018-12-10T12:49:07.455Z,99913.56
2018-12-10T12:51:34.947Z,99916.16
2018-12-10T12:54:02.395Z,99920.38
2018-12-10T12:56:29.849Z,99918.45
2018-12-10T12:58:57.332Z,99915.89
2018-12-10T13:01:24.913Z,99924.95
2018-12-10T13:03:52.336Z,99932.98
2018-12-10T13:06:19.779Z,99919.72
2018-12-10T13:08:47.276Z,99932.72
2018-12-10T13:11:14.884Z,99924.81
2018-12-10T13:13:42.511Z,99928.62
2018-12-10T13:16:09.926Z,99923.80
2018-12-10T13:18:37.351Z,99923.19
2018-12-10T13:21:04.772Z,99938.43
2018-12-10T13:23:32.210Z,99926.86
2018-12-10T13:25:59.651Z,99932.07
2018-12-10T13:28:27.076Z,99930.39
2018-12-10T13:30:54.492Z,99923.50
2018-12-10T13:33:21.903Z,99939.92
2018-12-10T13:35:49.353Z,99936.88
2018-12-10T13:38:16.776Z,99937.45
2018-12-10T13:40:44.219Z,99948.58
2018-12-10T13:43:12.646Z,99945.53
2018-12-10T13:45:40.190Z,99938.50
2018-12-10T13:48:07.603Z,99947.24
2018-12-10T13:50:35.007Z,99944.86
2018-12-10T13:53:02.436Z,99944.73
2018-12-10T13:55:29.832Z,99941.34
2018-12-10T13:57:57.243Z,99944.84
2018-12-10T14:00:24.663Z,99947.31
2018-12-10T14:02:52.094Z,99947.87
2018-12-10T14:05:19.520Z,99943.77
2018-12-10T14:07:48.152Z,99942.36
2018-12-10T14:10:15.935Z,99945.48
2018-12-10T14:12:43.355Z,99942.25
2018-12-10T14:15:10.822Z,99935.09
2018-12-10T14:17:38.258Z,99941.63
2018-12-10T14:20:05.695Z,99946.20
2018-12-10T14:22:33.187Z,99960.91
2018-12-10T14:25:00.636Z,99961.39
2018-12-10T14:27:28.047Z,99960.56
2018-12-10T14:29:55.516Z,99952.57
2018-12-10T14:32:22.970Z,99954.47
2018-12-10T14:34:50.382Z,99955.34
2018-12-10T14:37:17.810Z,99954.50
2018-12-10T14:39:45.228Z,99954.28
2018-12-10T14:42:12.643Z,99952.91
2018-12-10T14:44:40.068Z,99962.90
2018-12-10T14:47:07.498Z,99962.05
2018-12-10T14:49:34.909Z,99961.28
2018-12-10T14:52:02.395Z,99968.97
2018-12-10T14:54:29.832Z,99953.69
2018-12-10T14:56:57.708Z,99969.44
2018-12-10T14:59:25.128Z,99986.92
2018-12-10T15:01:52.543Z,99985.44
2018-12-10T15:04:19.962Z,99960.42
2018-12-10T15:06:47.371Z,99981.78
2018-12-10T15:09:14.786Z,99989.20
2018-12-10T15:11:42.212Z,99994.28
2018-12-10T15:14:09.627Z,99989.73
2018-12-10T15:16:37.040Z,99989.89
2018-12-10T15:19:04.459Z,99992.45
2018-12-10T15:21:31.894Z,99996.94
2018-12-10T15:23:59.320Z,100010.56
2018-12-10T15:26:26.735Z,99998.88
2018-12-10T15:28:54.161Z,100002.23
2018-12-10T15:31:21.584Z,100008.71
2018-12-10T15:33:49.102Z,100013.11
2018-12-10T15:36:16.601Z,100011.00
2018-12-10T15:38:44.022Z,100007.34
2018-12-10T15:41:11.446Z,99996.13
2018-12-10T15:43:38.872Z,99999.31
2018-12-10T15:46:06.283Z,99997.16
2018-12-10T15:48:33.750Z,100003.50
2018-12-10T15:51:01.168Z,100007.65
2018-12-10T15:53:28.610Z,100008.62
2018-12-10T15:55:56.052Z,100000.11
2018-12-10T15:58:23.563Z,100000.05
2018-12-10T16:00:51.005Z,99996.78
2018-12-10T16:03:18.493Z,99992.94
2018-12-10T16:05:45.931Z,99994.05
2018-12-10T16:08:14.376Z,99996.50
2018-12-10T16:10:41.879Z,99994.80
2018-12-10T16:13:09.311Z,99997.53
2018-12-10T16:15:36.798Z,99998.95
2018-12-10T16:18:04.236Z,99995.59
2018-12-10T16:20:31.761Z,100000.06
2018-12-10T16:22:59.275Z,100004.53
2018-12-10T16:25:26.701Z,100002.17
2018-12-10T16:27:54.367Z,100005.36
2018-12-10T16:30:22.140Z,100000.89
2018-12-10T16:32:49.558Z,100002.63
2018-12-10T16:35:17.041Z,100002.59
2018-12-10T16:37:44.616Z,100006.34
2018-12-10T16:40:12.032Z,100013.86
2018-12-10T16:42:39.446Z,100012.30
2018-12-10T16:45:06.886Z,100016.06
2018-12-10T16:47:34.301Z,100017.81
2018-12-10T16:50:01.828Z,100011.90
2018-12-10T16:52:29.243Z,100022.38
2018-12-10T16:54:56.671Z,100020.49
2018-12-10T16:57:24.087Z,100018.78
2018-12-10T16:59:51.563Z,100012.41
2018-12-10T17:02:19.007Z,100016.97
2018-12-10T17:04:46.430Z,100012.16
2018-12-10T17:07:14.506Z,100010.20
2018-12-10T17:09:42.297Z,100007.75
2018-12-10T17:12:09.963Z,99998.38
2018-12-10T17:14:37.414Z,99993.82
2018-12-10T17:17:04.987Z,99993.14
2018-12-10T17:19:32.419Z,99998.58
2018-12-10T17:21:59.855Z,99993.10
2018-12-10T17:24:27.375Z,99987.94
2018-12-10T17:26:55.574Z,99983.91
2018-12-10T17:29:23.087Z,99982.88
2018-12-10T17:31:50.564Z,99990.22
2018-12-10T17:34:17.992Z,99986.41
2018-12-10T17:36:45.411Z,99995.23
2018-12-10T17:39:12.831Z,99986.56
2018-12-10T17:41:40.238Z,99993.06
2018-12-10T17:44:07.662Z,99985.95
2018-12-10T17:46:35.080Z,99990.11
2018-12-10T17:49:02.635Z,99987.71
2018-12-10T17:51:30.050Z,99990.03
2018-12-10T17:53:57.734Z,99985.81
2018-12-10T17:56:25.195Z,99978.93
2018-12-10T17:58:52.682Z,99979.56
2018-12-10T18:01:20.100Z,99987.59
2018-12-10T18:03:47.523Z,99979.08
2018-12-10T18:06:14.931Z,99977.70
2018-12-10T18:08:42.349Z,99981.19
2018-12-10T18:11:09.758Z,99984.61
2018-12-10T18:13:37.181Z,99984.22
2018-12-10T18:16:04.782Z,99979.59
2018-12-10T18:18:32.712Z,99983.82
2018-12-10T18:21:00.303Z,99986.14
2018-12-10T18:23:27.731Z,99992.38
2018-12-10T18:25:55.227Z,99982.00
2018-12-10T18:28:22.691Z,99982.30
2018-12-10T18:30:50.351Z,99980.38
2018-12-10T18:33:17.846Z,99983.28
2018-12-10T18:35:45.269Z,99990.52
2018-12-10T18:38:12.674Z,99977.95
2018-12-10T18:40:40.171Z,99975.65
2018-12-10T18:43:07.580Z,99968.09
2018-12-10T18:45:35.098Z,99966.72
2018-12-10T18:48:02.553Z,99965.83
2018-12-10T18:50:30.507Z,99974.47
2018-12-10T18:52:58.124Z,99980.38
2018-12-10T18:55:25.549Z,99967.91
2018-12-10T18:57:53.606Z,99983.38
2018-12-10T19:00:21.058Z,99968.98
2018-12-10T19:02:48.483Z,99974.89
2018-12-10T19:05:15.978Z,99975.03
2018-12-10T19:07:44.199Z,99973.11
2018-12-10T19:10:11.618Z,99972.95
2018-12-10T19:12:39.284Z,99976.70
2018-12-10T19:15:06.763Z,99966.25
2018-12-10T19:17:34.291Z,99968.53
2018-12-10T19:20:01.724Z,99966.74
2018-12-10T19:22:29.255Z,99963.56
2018-12-10T19:24:56.735Z,99953.48
2018-12-10T19:27:24.174Z,99958.13
2018-12-10T19:29:51.693Z,99970.59
2018-12-10T19:32:19.143Z,99968.27
2018-12-10T19:34:46.605Z,99963.19
2018-12-10T19:37:14.020Z,99969.81
2018-12-10T19:39:41.439Z,99964.76
2018-12-10T19:42:08.864Z,99976.91
2018-12-10T19:44:36.300Z,99979.31
2018-12-10T19:47:04.384Z,99969.48
2018-12-10T19:49:31.848Z,99975.88
2018-12-10T19:51:59.432Z,99971.09
2018-12-10T19:54:26.882Z,99964.55
2018-12-10T19:56:54.295Z,99956.88
2018-12-10T19:59:21.801Z,99966.90
2018-12-10T20:01:49.287Z,99952.84
2018-12-10T20:04:16.699Z,99951.48
2018-12-10T20:06:49.550Z,99953.69
2018-12-10T20:09:16.975Z,99938.05
2018-12-10T20:11:44.403Z,99938.36
2018-12-10T20:14:11.814Z,99933.73
2018-12-10T20:16:39.319Z,99937.41
2018-12-10T20:19:06.771Z,99941.09
2018-12-10T20:21:34.207Z,99949.86
2018-12-10T20:24:01.695Z,99954.91
2018-12-10T20:26:29.182Z,99949.16
2018-12-10T20:28:56.769Z,99959.76
2018-12-10T20:31:24.276Z,99953.64
2018-12-10T20:33:51.865Z,99954.23
2018-12-10T20:36:19.361Z,99941.99
2018-12-10T20:38:46.823Z,99950.02
2018-12-10T20:41:14.246Z,99941.45
2018-12-10T20:43:41.826Z,99949.36
2018-12-10T20:46:09.339Z,99957.66
2018-12-10T20:48:36.743Z,99946.17
2018-12-10T20:51:04.169Z,99946.09
2018-12-10T20:53:31.800Z,99947.76
2018-12-10T20:55:59.223Z,99929.64
2018-12-10T20:58:26.640Z,99935.78
2018-12-10T21:00:54.096Z,99934.20
2018-12-10T21:03:21.517Z,99934.20
2018-12-10T21:05:54.370Z,99926.45
2018-12-10T21:08:22.301Z,99939.95
2018-12-10T21:10:49.736Z,99932.78
2018-12-10T21:13:17.532Z,99934.38
2018-12-10T21:15:44.967Z,99928.47
2018-12-10T21:18:12.386Z,99935.50
2018-12-10T21:20:39.798Z,99925.67
2018-12-10T21:23:07.198Z,99933.43
2018-12-10T21:25:34.621Z,99934.86
2018-12-10T21:28:02.030Z,99926.40
2018-12-10T21:30:29.461Z,99935.80
2018-12-10T21:32:56.879Z,99929.27
2018-12-10T21:35:24.292Z,99930.69
2018-12-10T21:37:51.781Z,99927.28
2018-12-10T21:40:19.190Z,99902.58
2018-12-10T21:42:46.690Z,99910.58
2018-12-10T21:45:14.602Z,99905.38
2018-12-10T21:47:42.031Z,99899.87
2018-12-10T21:50:09.461Z,99904.98
2018-12-10T21:52:36.895Z,99910.24
2018-12-10T21:55:04.314Z,99891.08
2018-12-10T21:57:31.736Z,99891.90
2018-12-10T21:59:59.196Z,99897.41
2018-12-10T22:02:26.615Z,99895.25
2018-12-10T22:04:54.112Z,99904.83
2018-12-10T22:07:21.572Z,99895.73
2018-12-10T22:09:49.024Z,99895.54
2018-12-10T22:12:16.467Z,99899.61
2018-12-10T22:14:43.868Z,99892.33
2018-12-10T22:17:11.295Z,99889.86
2018-12-10T22:19:39.585Z,99888.58
2018-12-10T22:22:06.999Z,99882.10
2018-12-10T22:24:34.407Z,99882.67
2018-12-10T22:27:01.878Z,99877.60
2018-12-10T22:29:29.297Z,99872.98
2018-12-10T22:31:56.750Z,99868.98
2018-12-10T22:34:25.091Z,99877.85
2018-12-10T22:36:52.506Z,99866.72
2018-12-10T22:39:19.937Z,99860.83
2018-12-10T22:41:47.407Z,99869.74
2018-12-10T22:44:14.829Z,99858.91
2018-12-10T22:46:42.245Z,99858.67
2018-12-10T22:49:09.655Z,99861.63
2018-12-10T22:51:37.138Z,99862.66
2018-12-10T22:54:04.609Z,99858.68
2018-12-10T22:56:32.151Z,99856.91
2018-12-10T22:58:59.554Z,99854.36
2018-12-10T23:01:26.971Z,99847.80
2018-12-10T23:03:54.435Z,99854.33
2018-12-10T23:06:21.859Z,99855.27
2018-12-10T23:08:49.285Z,99853.69
2018-12-10T23:11:16.797Z,99845.34
2018-12-10T23:13:44.211Z,99842.00
2018-12-10T23:16:11.652Z,99853.66
2018-12-10T23:18:39.067Z,99864.55
2018-12-10T23:21:06.760Z,99863.27
2018-12-10T23:23:34.177Z,99862.30
2018-12-10T23:26:01.605Z,99860.72
2018-12-10T23:28:29.099Z,99869.44
2018-12-10T23:30:56.510Z,99861.20
2018-12-10T23:33:23.928Z,99859.94
2018-12-10T23:35:51.373Z,99856.25
2018-12-10T23:38:18.835Z,99846.34
2018-12-10T23:40:46.287Z,99858.27
2018-12-10T23:43:19.028Z,99851.78
2018-12-10T23:45:46.439Z,99855.87
2018-12-10T23:48:13.874Z,99856.12
2018-12-10T23:50:41.661Z,99852.73
2018-12-10T23:53:09.087Z,99858.28
2018-12-10T23:55:36.527Z,99868.70
2018-12-10T23:58:03.944Z,99875.11
